sensor_id;sensor_type;location;lat;lon;timestamp;P1;durP1;ratioP1;P2;durP2;ratioP2
37771;SDS011;23610;59.380;24.642;2023-09-12T00:03:46;18.10;;;13.17;;
37771;SDS011;23610;59.380;24.642;2023-09-12T00:08:49;16.48;;;13.35;;
37771;SDS011;23610;59.380;24.642;2023-09-12T00:13:52;16.88;;;13.52;;
37771;SDS011;23610;59.380;24.642;2023-09-12T00:18:55;18.25;;;14.00;;
37771;SDS011;23610;59.380;24.642;2023-09-12T00:23:57;16.38;;;13.43;;
37771;SDS011;23610;59.380;24.642;2023-09-12T00:29:00;19.30;;;14.45;;
37771;SDS011;23610;59.380;24.642;2023-09-12T00:34:02;19.33;;;14.27;;
37771;SDS011;23610;59.380;24.642;2023-09-12T00:39:05;18.60;;;15.15;;
37771;SDS011;23610;59.380;24.642;2023-09-12T00:44:09;22.70;;;14.48;;
37771;SDS011;23610;59.380;24.642;2023-09-12T00:49:12;17.07;;;14.03;;
37771;SDS011;23610;59.380;24.642;2023-09-12T00:54:17;19.15;;;13.57;;
37771;SDS011;23610;59.380;24.642;2023-09-12T00:59:20;25.92;;;18.83;;
37771;SDS011;23610;59.380;24.642;2023-09-12T01:04:22;28.33;;;20.42;;
37771;SDS011;23610;59.380;24.642;2023-09-12T01:09:35;25.58;;;18.30;;
37771;SDS011;23610;59.380;24.642;2023-09-12T01:14:38;27.50;;;16.67;;
37771;SDS011;23610;59.380;24.642;2023-09-12T01:19:41;28.15;;;16.52;;
37771;SDS011;23610;59.380;24.642;2023-09-12T01:30:20;23.40;;;14.05;;
37771;SDS011;23610;59.380;24.642;2023-09-12T01:40:42;18.92;;;12.23;;
37771;SDS011;23610;59.380;24.642;2023-09-12T01:45:54;14.10;;;12.70;;
37771;SDS011;23610;59.380;24.642;2023-09-12T01:51:00;22.40;;;14.77;;
37771;SDS011;23610;59.380;24.642;2023-09-12T01:56:04;16.25;;;13.60;;
37771;SDS011;23610;59.380;24.642;2023-09-12T02:01:07;19.23;;;12.27;;
37771;SDS011;23610;59.380;24.642;2023-09-12T02:06:10;14.70;;;11.70;;
37771;SDS011;23610;59.380;24.642;2023-09-12T02:11:12;12.32;;;11.00;;
37771;SDS011;23610;59.380;24.642;2023-09-12T02:16:15;19.92;;;12.80;;
37771;SDS011;23610;59.380;24.642;2023-09-12T02:21:17;16.10;;;12.00;;
37771;SDS011;23610;59.380;24.642;2023-09-12T02:26:20;13.88;;;11.35;;
37771;SDS011;23610;59.380;24.642;2023-09-12T02:31:23;14.48;;;11.35;;
37771;SDS011;23610;59.380;24.642;2023-09-12T02:36:25;15.45;;;12.20;;
37771;SDS011;23610;59.380;24.642;2023-09-12T02:41:29;17.63;;;11.98;;
37771;SDS011;23610;59.380;24.642;2023-09-12T02:46:32;15.15;;;12.10;;
37771;SDS011;23610;59.380;24.642;2023-09-12T02:51:39;17.63;;;11.80;;
37771;SDS011;23610;59.380;24.642;2023-09-12T02:56:42;13.30;;;10.90;;
37771;SDS011;23610;59.380;24.642;2023-09-12T03:01:45;13.05;;;11.27;;
37771;SDS011;23610;59.380;24.642;2023-09-12T03:06:47;13.98;;;11.35;;
37771;SDS011;23610;59.380;24.642;2023-09-12T03:11:50;24.23;;;11.85;;
37771;SDS011;23610;59.380;24.642;2023-09-12T03:16:53;17.75;;;12.43;;
37771;SDS011;23610;59.380;24.642;2023-09-12T03:21:56;16.25;;;10.15;;
37771;SDS011;23610;59.380;24.642;2023-09-12T03:26:58;18.70;;;10.68;;
37771;SDS011;23610;59.380;24.642;2023-09-12T03:32:03;17.48;;;11.13;;
37771;SDS011;23610;59.380;24.642;2023-09-12T03:37:06;15.25;;;10.38;;
37771;SDS011;23610;59.380;24.642;2023-09-12T03:42:10;13.70;;;10.17;;
37771;SDS011;23610;59.380;24.642;2023-09-12T03:47:12;15.07;;;10.38;;
37771;SDS011;23610;59.380;24.642;2023-09-12T03:52:15;15.70;;;10.40;;
37771;SDS011;23610;59.380;24.642;2023-09-12T03:57:18;12.57;;;10.32;;
37771;SDS011;23610;59.380;24.642;2023-09-12T04:02:20;17.80;;;11.27;;
37771;SDS011;23610;59.380;24.642;2023-09-12T04:07:23;13.85;;;10.60;;
37771;SDS011;23610;59.380;24.642;2023-09-12T04:12:26;17.85;;;10.52;;
37771;SDS011;23610;59.380;24.642;2023-09-12T04:17:28;12.35;;;10.52;;
37771;SDS011;23610;59.380;24.642;2023-09-12T04:22:31;13.40;;;10.60;;
37771;SDS011;23610;59.380;24.642;2023-09-12T04:27:35;24.73;;;10.55;;
37771;SDS011;23610;59.380;24.642;2023-09-12T04:32:37;17.80;;;10.57;;
37771;SDS011;23610;59.380;24.642;2023-09-12T04:37:40;13.32;;;10.88;;
37771;SDS011;23610;59.380;24.642;2023-09-12T04:42:43;12.68;;;10.85;;
37771;SDS011;23610;59.380;24.642;2023-09-12T04:47:46;12.70;;;10.18;;
37771;SDS011;23610;59.380;24.642;2023-09-12T04:52:49;14.57;;;10.77;;
37771;SDS011;23610;59.380;24.642;2023-09-12T04:57:51;13.13;;;10.88;;
37771;SDS011;23610;59.380;24.642;2023-09-12T05:02:54;14.57;;;10.40;;
37771;SDS011;23610;59.380;24.642;2023-09-12T05:07:57;13.45;;;10.48;;
37771;SDS011;23610;59.380;24.642;2023-09-12T05:13:00;15.10;;;11.07;;
37771;SDS011;23610;59.380;24.642;2023-09-12T05:18:03;13.60;;;11.75;;
37771;SDS011;23610;59.380;24.642;2023-09-12T05:23:09;17.83;;;10.93;;
37771;SDS011;23610;59.380;24.642;2023-09-12T05:28:12;17.42;;;10.70;;
37771;SDS011;23610;59.380;24.642;2023-09-12T05:33:21;14.65;;;11.30;;
37771;SDS011;23610;59.380;24.642;2023-09-12T05:38:24;16.63;;;12.13;;
37771;SDS011;23610;59.380;24.642;2023-09-12T05:43:27;11.85;;;10.63;;
37771;SDS011;23610;59.380;24.642;2023-09-12T05:48:30;15.15;;;11.00;;
37771;SDS011;23610;59.380;24.642;2023-09-12T05:53:33;17.52;;;11.32;;
37771;SDS011;23610;59.380;24.642;2023-09-12T05:58:35;13.65;;;11.27;;
37771;SDS011;23610;59.380;24.642;2023-09-12T06:03:43;12.45;;;11.15;;
37771;SDS011;23610;59.380;24.642;2023-09-12T06:08:46;16.75;;;11.48;;
37771;SDS011;23610;59.380;24.642;2023-09-12T06:13:49;16.73;;;11.80;;
37771;SDS011;23610;59.380;24.642;2023-09-12T06:18:51;15.25;;;12.60;;
37771;SDS011;23610;59.380;24.642;2023-09-12T06:24:09;14.02;;;11.23;;
37771;SDS011;23610;59.380;24.642;2023-09-12T06:29:13;18.83;;;11.82;;
37771;SDS011;23610;59.380;24.642;2023-09-12T06:34:16;15.90;;;10.85;;
37771;SDS011;23610;59.380;24.642;2023-09-12T06:39:18;18.40;;;10.85;;
37771;SDS011;23610;59.380;24.642;2023-09-12T06:44:21;15.30;;;10.60;;
37771;SDS011;23610;59.380;24.642;2023-09-12T06:49:24;16.63;;;9.98;;
37771;SDS011;23610;59.380;24.642;2023-09-12T06:54:26;15.90;;;9.60;;
37771;SDS011;23610;59.380;24.642;2023-09-12T06:59:29;16.80;;;10.48;;
37771;SDS011;23610;59.380;24.642;2023-09-12T07:04:31;13.25;;;10.15;;
37771;SDS011;23610;59.380;24.642;2023-09-12T07:09:34;14.93;;;10.27;;
37771;SDS011;23610;59.380;24.642;2023-09-12T07:14:37;14.30;;;10.13;;
37771;SDS011;23610;59.380;24.642;2023-09-12T07:19:39;18.80;;;11.23;;
37771;SDS011;23610;59.380;24.642;2023-09-12T07:24:43;14.70;;;9.60;;
37771;SDS011;23610;59.380;24.642;2023-09-12T07:29:46;12.05;;;10.05;;
37771;SDS011;23610;59.380;24.642;2023-09-12T07:34:49;14.93;;;9.93;;
37771;SDS011;23610;59.380;24.642;2023-09-12T07:39:51;21.13;;;9.55;;
37771;SDS011;23610;59.380;24.642;2023-09-12T07:44:54;13.77;;;10.40;;
37771;SDS011;23610;59.380;24.642;2023-09-12T07:49:56;27.05;;;10.52;;
37771;SDS011;23610;59.380;24.642;2023-09-12T07:55:01;15.77;;;8.98;;
37771;SDS011;23610;59.380;24.642;2023-09-12T08:00:04;11.25;;;9.05;;
37771;SDS011;23610;59.380;24.642;2023-09-12T08:05:14;10.65;;;9.55;;
37771;SDS011;23610;59.380;24.642;2023-09-12T08:10:17;25.85;;;9.32;;
37771;SDS011;23610;59.380;24.642;2023-09-12T08:15:19;17.38;;;8.95;;
37771;SDS011;23610;59.380;24.642;2023-09-12T08:20:22;11.40;;;9.00;;
37771;SDS011;23610;59.380;24.642;2023-09-12T08:25:25;11.25;;;9.05;;
37771;SDS011;23610;59.380;24.642;2023-09-12T08:30:28;10.35;;;9.00;;
37771;SDS011;23610;59.380;24.642;2023-09-12T08:35:31;10.30;;;8.02;;
37771;SDS011;23610;59.380;24.642;2023-09-12T08:40:34;17.80;;;8.65;;
37771;SDS011;23610;59.380;24.642;2023-09-12T08:45:37;9.88;;;8.27;;
37771;SDS011;23610;59.380;24.642;2023-09-12T08:50:39;17.95;;;9.23;;
37771;SDS011;23610;59.380;24.642;2023-09-12T08:55:43;11.20;;;8.40;;
37771;SDS011;23610;59.380;24.642;2023-09-12T09:00:45;11.35;;;8.45;;
37771;SDS011;23610;59.380;24.642;2023-09-12T09:05:48;12.07;;;9.13;;
37771;SDS011;23610;59.380;24.642;2023-09-12T09:11:00;15.95;;;8.70;;
37771;SDS011;23610;59.380;24.642;2023-09-12T09:21:23;8.65;;;7.75;;
37771;SDS011;23610;59.380;24.642;2023-09-12T09:26:50;11.15;;;8.13;;
37771;SDS011;23610;59.380;24.642;2023-09-12T09:32:00;10.00;;;7.78;;
37771;SDS011;23610;59.380;24.642;2023-09-12T09:37:03;11.98;;;8.90;;
37771;SDS011;23610;59.380;24.642;2023-09-12T09:42:09;11.80;;;7.77;;
37771;SDS011;23610;59.380;24.642;2023-09-12T09:47:15;8.27;;;7.40;;
37771;SDS011;23610;59.380;24.642;2023-09-12T09:52:25;10.23;;;7.93;;
37771;SDS011;23610;59.380;24.642;2023-09-12T09:57:29;9.32;;;8.00;;
37771;SDS011;23610;59.380;24.642;2023-09-12T10:02:31;8.77;;;7.88;;
37771;SDS011;23610;59.380;24.642;2023-09-12T10:07:35;12.43;;;9.73;;
37771;SDS011;23610;59.380;24.642;2023-09-12T10:12:47;9.70;;;8.10;;
37771;SDS011;23610;59.380;24.642;2023-09-12T10:17:56;11.63;;;9.07;;
37771;SDS011;23610;59.380;24.642;2023-09-12T10:23:17;14.10;;;10.98;;
37771;SDS011;23610;59.380;24.642;2023-09-12T10:28:28;13.02;;;10.65;;
37771;SDS011;23610;59.380;24.642;2023-09-12T10:33:32;17.52;;;11.18;;
37771;SDS011;23610;59.380;24.642;2023-09-12T10:38:40;14.93;;;11.93;;
37771;SDS011;23610;59.380;24.642;2023-09-12T10:43:45;15.55;;;11.63;;
37771;SDS011;23610;59.380;24.642;2023-09-12T10:48:53;15.35;;;12.45;;
37771;SDS011;23610;59.380;24.642;2023-09-12T10:53:56;15.82;;;12.25;;
37771;SDS011;23610;59.380;24.642;2023-09-12T11:09:25;16.00;;;11.67;;
37771;SDS011;23610;59.380;24.642;2023-09-12T11:14:29;16.35;;;12.27;;
37771;SDS011;23610;59.380;24.642;2023-09-12T11:19:50;14.27;;;12.13;;
37771;SDS011;23610;59.380;24.642;2023-09-12T11:24:55;18.58;;;12.82;;
37771;SDS011;23610;59.380;24.642;2023-09-12T11:30:07;16.05;;;12.25;;
37771;SDS011;23610;59.380;24.642;2023-09-12T11:35:11;14.98;;;12.95;;
37771;SDS011;23610;59.380;24.642;2023-09-12T11:45:19;14.10;;;11.37;;
37771;SDS011;23610;59.380;24.642;2023-09-12T11:55:42;14.05;;;10.68;;
37771;SDS011;23610;59.380;24.642;2023-09-12T12:05:57;18.77;;;10.68;;
37771;SDS011;23610;59.380;24.642;2023-09-12T12:11:00;13.90;;;12.05;;
37771;SDS011;23610;59.380;24.642;2023-09-12T12:16:14;11.77;;;9.48;;
37771;SDS011;23610;59.380;24.642;2023-09-12T12:21:18;13.77;;;10.23;;
37771;SDS011;23610;59.380;24.642;2023-09-12T12:26:21;14.35;;;10.98;;
37771;SDS011;23610;59.380;24.642;2023-09-12T12:31:25;18.33;;;11.30;;
37771;SDS011;23610;59.380;24.642;2023-09-12T12:36:31;11.23;;;9.98;;
37771;SDS011;23610;59.380;24.642;2023-09-12T12:41:41;15.05;;;9.77;;
37771;SDS011;23610;59.380;24.642;2023-09-12T12:46:54;12.73;;;10.32;;
37771;SDS011;23610;59.380;24.642;2023-09-12T12:51:57;15.68;;;10.82;;
37771;SDS011;23610;59.380;24.642;2023-09-12T12:57:00;10.93;;;9.00;;
37771;SDS011;23610;59.380;24.642;2023-09-12T13:02:04;12.43;;;9.15;;
37771;SDS011;23610;59.380;24.642;2023-09-12T13:07:07;15.98;;;9.25;;
37771;SDS011;23610;59.380;24.642;2023-09-12T13:12:12;10.48;;;8.38;;
37771;SDS011;23610;59.380;24.642;2023-09-12T13:17:16;12.85;;;9.82;;
37771;SDS011;23610;59.380;24.642;2023-09-12T13:22:23;18.85;;;8.70;;
37771;SDS011;23610;59.380;24.642;2023-09-12T13:27:27;17.77;;;9.52;;
37771;SDS011;23610;59.380;24.642;2023-09-12T13:32:32;10.10;;;8.02;;
37771;SDS011;23610;59.380;24.642;2023-09-12T13:37:35;11.30;;;7.88;;
37771;SDS011;23610;59.380;24.642;2023-09-12T13:42:37;11.98;;;8.38;;
37771;SDS011;23610;59.380;24.642;2023-09-12T13:47:40;11.80;;;8.13;;
37771;SDS011;23610;59.380;24.642;2023-09-12T13:52:44;11.77;;;8.30;;
37771;SDS011;23610;59.380;24.642;2023-09-12T13:57:47;11.98;;;7.63;;
37771;SDS011;23610;59.380;24.642;2023-09-12T14:02:57;13.07;;;8.23;;
37771;SDS011;23610;59.380;24.642;2023-09-12T14:07:59;11.15;;;7.32;;
37771;SDS011;23610;59.380;24.642;2023-09-12T14:13:04;12.90;;;8.15;;
37771;SDS011;23610;59.380;24.642;2023-09-12T14:18:22;10.88;;;8.70;;
37771;SDS011;23610;59.380;24.642;2023-09-12T14:23:25;12.05;;;8.00;;
37771;SDS011;23610;59.380;24.642;2023-09-12T14:28:27;10.18;;;8.10;;
37771;SDS011;23610;59.380;24.642;2023-09-12T14:33:34;15.70;;;7.95;;
37771;SDS011;23610;59.380;24.642;2023-09-12T14:38:37;12.05;;;8.93;;
37771;SDS011;23610;59.380;24.642;2023-09-12T14:43:39;9.13;;;7.75;;
37771;SDS011;23610;59.380;24.642;2023-09-12T14:48:42;16.60;;;8.65;;
37771;SDS011;23610;59.380;24.642;2023-09-12T14:54:04;9.50;;;7.97;;
37771;SDS011;23610;59.380;24.642;2023-09-12T14:59:08;10.30;;;7.22;;
37771;SDS011;23610;59.380;24.642;2023-09-12T15:04:11;15.38;;;8.15;;
37771;SDS011;23610;59.380;24.642;2023-09-12T15:09:14;13.55;;;7.70;;
37771;SDS011;23610;59.380;24.642;2023-09-12T15:14:16;15.32;;;9.10;;
37771;SDS011;23610;59.380;24.642;2023-09-12T15:19:19;12.95;;;9.02;;
37771;SDS011;23610;59.380;24.642;2023-09-12T15:24:22;11.05;;;8.45;;
37771;SDS011;23610;59.380;24.642;2023-09-12T15:29:25;13.57;;;8.40;;
37771;SDS011;23610;59.380;24.642;2023-09-12T15:34:31;11.80;;;9.00;;
37771;SDS011;23610;59.380;24.642;2023-09-12T15:39:34;12.65;;;8.90;;
37771;SDS011;23610;59.380;24.642;2023-09-12T15:44:38;10.98;;;8.38;;
37771;SDS011;23610;59.380;24.642;2023-09-12T15:49:57;11.57;;;8.95;;
37771;SDS011;23610;59.380;24.642;2023-09-12T15:55:07;10.80;;;8.95;;
37771;SDS011;23610;59.380;24.642;2023-09-12T16:00:12;11.13;;;9.20;;
37771;SDS011;23610;59.380;24.642;2023-09-12T16:05:15;16.73;;;8.68;;
37771;SDS011;23610;59.380;24.642;2023-09-12T16:10:22;17.95;;;9.43;;
37771;SDS011;23610;59.380;24.642;2023-09-12T16:15:26;12.10;;;9.43;;
37771;SDS011;23610;59.380;24.642;2023-09-12T16:20:29;14.90;;;9.87;;
37771;SDS011;23610;59.380;24.642;2023-09-12T16:25:35;16.17;;;9.90;;
37771;SDS011;23610;59.380;24.642;2023-09-12T16:30:39;17.90;;;11.07;;
37771;SDS011;23610;59.380;24.642;2023-09-12T16:35:46;15.27;;;10.50;;
37771;SDS011;23610;59.380;24.642;2023-09-12T16:40:48;17.92;;;11.93;;
37771;SDS011;23610;59.380;24.642;2023-09-12T16:45:53;17.23;;;11.80;;
37771;SDS011;23610;59.380;24.642;2023-09-12T16:50:56;17.10;;;12.15;;
37771;SDS011;23610;59.380;24.642;2023-09-12T16:55:59;13.32;;;10.80;;
37771;SDS011;23610;59.380;24.642;2023-09-12T17:01:01;16.13;;;11.93;;
37771;SDS011;23610;59.380;24.642;2023-09-12T17:06:04;15.25;;;12.32;;
37771;SDS011;23610;59.380;24.642;2023-09-12T17:11:07;20.83;;;12.65;;
37771;SDS011;23610;59.380;24.642;2023-09-12T17:16:09;14.63;;;13.07;;
37771;SDS011;23610;59.380;24.642;2023-09-12T17:21:12;13.85;;;11.98;;
37771;SDS011;23610;59.380;24.642;2023-09-12T17:26:14;19.27;;;15.18;;
37771;SDS011;23610;59.380;24.642;2023-09-12T17:31:18;38.47;;;22.80;;
37771;SDS011;23610;59.380;24.642;2023-09-12T17:36:20;56.63;;;27.75;;
37771;SDS011;23610;59.380;24.642;2023-09-12T17:41:23;55.63;;;32.83;;
37771;SDS011;23610;59.380;24.642;2023-09-12T17:46:26;51.63;;;28.77;;
37771;SDS011;23610;59.380;24.642;2023-09-12T17:51:28;42.20;;;25.98;;
37771;SDS011;23610;59.380;24.642;2023-09-12T17:56:33;50.35;;;27.98;;
37771;SDS011;23610;59.380;24.642;2023-09-12T18:01:36;39.25;;;25.17;;
37771;SDS011;23610;59.380;24.642;2023-09-12T18:06:39;39.90;;;22.23;;
37771;SDS011;23610;59.380;24.642;2023-09-12T18:11:41;27.63;;;18.92;;
37771;SDS011;23610;59.380;24.642;2023-09-12T18:16:44;26.77;;;16.10;;
37771;SDS011;23610;59.380;24.642;2023-09-12T18:21:46;51.13;;;18.30;;
37771;SDS011;23610;59.380;24.642;2023-09-12T18:26:49;19.17;;;13.35;;
37771;SDS011;23610;59.380;24.642;2023-09-12T18:31:52;34.42;;;14.68;;
37771;SDS011;23610;59.380;24.642;2023-09-12T18:36:55;23.02;;;14.23;;
37771;SDS011;23610;59.380;24.642;2023-09-12T18:41:57;25.45;;;12.50;;
37771;SDS011;23610;59.380;24.642;2023-09-12T18:47:00;26.38;;;14.23;;
37771;SDS011;23610;59.380;24.642;2023-09-12T18:52:03;35.83;;;15.23;;
37771;SDS011;23610;59.380;24.642;2023-09-12T18:57:09;17.83;;;11.90;;
37771;SDS011;23610;59.380;24.642;2023-09-12T19:02:12;23.88;;;12.98;;
37771;SDS011;23610;59.380;24.642;2023-09-12T19:07:17;15.50;;;11.10;;
37771;SDS011;23610;59.380;24.642;2023-09-12T19:12:20;17.55;;;11.57;;
37771;SDS011;23610;59.380;24.642;2023-09-12T19:17:22;15.98;;;12.13;;
37771;SDS011;23610;59.380;24.642;2023-09-12T19:22:25;13.50;;;11.63;;
37771;SDS011;23610;59.380;24.642;2023-09-12T19:27:28;12.95;;;10.60;;
37771;SDS011;23610;59.380;24.642;2023-09-12T19:32:30;14.13;;;10.88;;
37771;SDS011;23610;59.380;24.642;2023-09-12T19:37:33;14.68;;;11.00;;
37771;SDS011;23610;59.380;24.642;2023-09-12T19:42:36;12.35;;;11.00;;
37771;SDS011;23610;59.380;24.642;2023-09-12T19:47:39;11.75;;;10.20;;
37771;SDS011;23610;59.380;24.642;2023-09-12T19:53:00;13.90;;;10.60;;
37771;SDS011;23610;59.380;24.642;2023-09-12T19:58:03;19.80;;;12.23;;
37771;SDS011;23610;59.380;24.642;2023-09-12T20:03:06;16.27;;;12.25;;
37771;SDS011;23610;59.380;24.642;2023-09-12T20:08:13;14.25;;;11.85;;
37771;SDS011;23610;59.380;24.642;2023-09-12T20:13:16;15.60;;;12.15;;
37771;SDS011;23610;59.380;24.642;2023-09-12T20:18:18;16.75;;;12.27;;
37771;SDS011;23610;59.380;24.642;2023-09-12T20:23:21;11.82;;;10.63;;
37771;SDS011;23610;59.380;24.642;2023-09-12T20:28:27;14.85;;;11.45;;
37771;SDS011;23610;59.380;24.642;2023-09-12T20:33:30;15.57;;;11.80;;
37771;SDS011;23610;59.380;24.642;2023-09-12T20:38:33;13.77;;;12.27;;
37771;SDS011;23610;59.380;24.642;2023-09-12T20:43:36;14.00;;;12.13;;
37771;SDS011;23610;59.380;24.642;2023-09-12T20:48:39;16.08;;;13.65;;
37771;SDS011;23610;59.380;24.642;2023-09-12T20:53:41;14.57;;;12.00;;
37771;SDS011;23610;59.380;24.642;2023-09-12T20:58:44;15.48;;;12.73;;
37771;SDS011;23610;59.380;24.642;2023-09-12T21:03:48;18.83;;;12.30;;
37771;SDS011;23610;59.380;24.642;2023-09-12T21:08:52;23.67;;;13.57;;
37771;SDS011;23610;59.380;24.642;2023-09-12T21:13:55;15.70;;;12.93;;
37771;SDS011;23610;59.380;24.642;2023-09-12T21:18:58;16.50;;;13.45;;
37771;SDS011;23610;59.380;24.642;2023-09-12T21:24:01;17.67;;;12.20;;
37771;SDS011;23610;59.380;24.642;2023-09-12T21:29:04;14.15;;;12.50;;
37771;SDS011;23610;59.380;24.642;2023-09-12T21:34:06;19.98;;;14.10;;
37771;SDS011;23610;59.380;24.642;2023-09-12T21:39:09;14.38;;;12.30;;
37771;SDS011;23610;59.380;24.642;2023-09-12T21:44:12;16.40;;;12.88;;
37771;SDS011;23610;59.380;24.642;2023-09-12T21:49:14;15.23;;;13.55;;
37771;SDS011;23610;59.380;24.642;2023-09-12T21:54:17;15.68;;;12.63;;
37771;SDS011;23610;59.380;24.642;2023-09-12T21:59:19;19.98;;;12.57;;
37771;SDS011;23610;59.380;24.642;2023-09-12T22:04:22;16.73;;;13.20;;
37771;SDS011;23610;59.380;24.642;2023-09-12T22:09:24;15.10;;;12.05;;
37771;SDS011;23610;59.380;24.642;2023-09-12T22:14:27;16.55;;;13.57;;
37771;SDS011;23610;59.380;24.642;2023-09-12T22:19:30;21.73;;;13.52;;
37771;SDS011;23610;59.380;24.642;2023-09-12T22:24:36;18.80;;;13.77;;
37771;SDS011;23610;59.380;24.642;2023-09-12T22:29:38;20.38;;;13.10;;
37771;SDS011;23610;59.380;24.642;2023-09-12T22:34:41;19.02;;;13.98;;
37771;SDS011;23610;59.380;24.642;2023-09-12T22:39:43;18.88;;;13.15;;
37771;SDS011;23610;59.380;24.642;2023-09-12T22:44:46;23.77;;;14.30;;
37771;SDS011;23610;59.380;24.642;2023-09-12T22:49:49;22.80;;;14.23;;
37771;SDS011;23610;59.380;24.642;2023-09-12T22:54:52;19.73;;;13.93;;
37771;SDS011;23610;59.380;24.642;2023-09-12T22:59:55;17.00;;;13.25;;
37771;SDS011;23610;59.380;24.642;2023-09-12T23:04:58;16.83;;;13.98;;
37771;SDS011;23610;59.380;24.642;2023-09-12T23:10:00;19.75;;;14.00;;
37771;SDS011;23610;59.380;24.642;2023-09-12T23:15:03;18.42;;;14.88;;
37771;SDS011;23610;59.380;24.642;2023-09-12T23:30:16;16.80;;;13.93;;
37771;SDS011;23610;59.380;24.642;2023-09-12T23:35:18;17.58;;;13.85;;
37771;SDS011;23610;59.380;24.642;2023-09-12T23:40:21;18.30;;;15.18;;
37771;SDS011;23610;59.380;24.642;2023-09-12T23:45:24;17.50;;;14.13;;
37771;SDS011;23610;59.380;24.642;2023-09-12T23:50:27;15.88;;;13.25;;
37771;SDS011;23610;59.380;24.642;2023-09-12T23:55:32;21.15;;;14.52;;
